sensor_id;sensor_type;location;lat;lon;timestamp;P1;durP1;ratioP1;P2;durP2;ratioP2
17528;SDS011;8882;53.192;8.184;2024-01-25T05:15:25;22.63;;;3.87;;
17528;SDS011;8882;53.192;8.184;2024-01-25T05:17:50;18.80;;;3.90;;
17528;SDS011;8882;53.192;8.184;2024-01-25T05:20:16;17.73;;;3.93;;
17528;SDS011;8882;53.192;8.184;2024-01-25T05:22:42;18.73;;;3.73;;
17528;SDS011;8882;53.192;8.184;2024-01-25T05:25:08;27.53;;;4.50;;
17528;SDS011;8882;53.192;8.184;2024-01-25T05:27:33;22.93;;;4.20;;
17528;SDS011;8882;53.192;8.184;2024-01-25T05:29:59;30.63;;;4.90;;
17528;SDS011;8882;53.192;8.184;2024-01-25T05:32:25;24.33;;;4.30;;
17528;SDS011;8882;53.192;8.184;2024-01-25T05:34:50;17.20;;;3.87;;
17528;SDS011;8882;53.192;8.184;2024-01-25T05:37:15;23.90;;;4.53;;
17528;SDS011;8882;53.192;8.184;2024-01-25T05:39:41;25.37;;;4.50;;
17528;SDS011;8882;53.192;8.184;2024-01-25T05:42:06;22.93;;;3.90;;
17528;SDS011;8882;53.192;8.184;2024-01-25T05:44:33;20.97;;;3.87;;
17528;SDS011;8882;53.192;8.184;2024-01-25T05:46:59;20.90;;;4.87;;
17528;SDS011;8882;53.192;8.184;2024-01-25T05:49:25;36.57;;;4.17;;
17528;SDS011;8882;53.192;8.184;2024-01-25T05:51:50;29.77;;;3.90;;
17528;SDS011;8882;53.192;8.184;2024-01-25T05:54:16;28.97;;;4.30;;
17528;SDS011;8882;53.192;8.184;2024-01-25T05:56:41;32.47;;;4.20;;
17528;SDS011;8882;53.192;8.184;2024-01-25T05:59:07;21.07;;;3.93;;
17528;SDS011;8882;53.192;8.184;2024-01-25T06:01:32;20.70;;;3.83;;
17528;SDS011;8882;53.192;8.184;2024-01-25T06:03:58;26.30;;;4.80;;
17528;SDS011;8882;53.192;8.184;2024-01-25T06:06:23;29.73;;;4.87;;
17528;SDS011;8882;53.192;8.184;2024-01-25T06:08:49;23.77;;;4.50;;
17528;SDS011;8882;53.192;8.184;2024-01-25T06:11:14;23.93;;;3.90;;
17528;SDS011;8882;53.192;8.184;2024-01-25T06:13:40;22.53;;;3.83;;
17528;SDS011;8882;53.192;8.184;2024-01-25T06:16:06;28.23;;;4.00;;
17528;SDS011;8882;53.192;8.184;2024-01-25T06:18:31;21.63;;;3.70;;
17528;SDS011;8882;53.192;8.184;2024-01-25T06:20:57;18.83;;;3.50;;
17528;SDS011;8882;53.192;8.184;2024-01-25T06:23:22;21.90;;;3.93;;
17528;SDS011;8882;53.192;8.184;2024-01-25T06:25:48;25.20;;;5.77;;
17528;SDS011;8882;53.192;8.184;2024-01-25T06:28:13;19.50;;;4.10;;
17528;SDS011;8882;53.192;8.184;2024-01-25T06:30:39;21.17;;;4.00;;
17528;SDS011;8882;53.192;8.184;2024-01-25T06:33:04;26.90;;;3.93;;
17528;SDS011;8882;53.192;8.184;2024-01-25T06:35:30;26.17;;;4.37;;
17528;SDS011;8882;53.192;8.184;2024-01-25T06:37:56;26.83;;;3.90;;
17528;SDS011;8882;53.192;8.184;2024-01-25T06:40:22;26.13;;;3.87;;
17528;SDS011;8882;53.192;8.184;2024-01-25T06:42:47;27.00;;;4.00;;
17528;SDS011;8882;53.192;8.184;2024-01-25T06:45:13;21.60;;;3.70;;
17528;SDS011;8882;53.192;8.184;2024-01-25T06:47:38;19.13;;;3.00;;
17528;SDS011;8882;53.192;8.184;2024-01-25T06:50:04;28.43;;;3.77;;
17528;SDS011;8882;53.192;8.184;2024-01-25T17:01:17;21.50;;;4.00;;
17528;SDS011;8882;53.192;8.184;2024-01-25T17:03:43;19.90;;;4.37;;
17528;SDS011;8882;53.192;8.184;2024-01-25T17:06:08;24.33;;;4.70;;
17528;SDS011;8882;53.192;8.184;2024-01-25T17:08:34;18.87;;;4.47;;
17528;SDS011;8882;53.192;8.184;2024-01-25T17:10:59;30.53;;;5.50;;
17528;SDS011;8882;53.192;8.184;2024-01-25T17:13:25;21.63;;;5.00;;
17528;SDS011;8882;53.192;8.184;2024-01-25T17:15:50;24.67;;;4.30;;
17528;SDS011;8882;53.192;8.184;2024-01-25T17:18:16;15.70;;;4.70;;
17528;SDS011;8882;53.192;8.184;2024-01-25T17:20:41;18.37;;;4.70;;
17528;SDS011;8882;53.192;8.184;2024-01-25T17:23:07;15.97;;;4.23;;
17528;SDS011;8882;53.192;8.184;2024-01-25T17:25:33;25.23;;;5.33;;
17528;SDS011;8882;53.192;8.184;2024-01-25T17:27:58;21.87;;;5.17;;
17528;SDS011;8882;53.192;8.184;2024-01-25T17:30:24;15.87;;;4.73;;
17528;SDS011;8882;53.192;8.184;2024-01-25T17:32:49;18.93;;;5.43;;
17528;SDS011;8882;53.192;8.184;2024-01-25T17:35:15;20.73;;;5.40;;
17528;SDS011;8882;53.192;8.184;2024-01-25T17:37:40;24.00;;;5.23;;
17528;SDS011;8882;53.192;8.184;2024-01-25T17:40:06;24.03;;;5.73;;
17528;SDS011;8882;53.192;8.184;2024-01-25T17:42:32;27.27;;;8.03;;
17528;SDS011;8882;53.192;8.184;2024-01-25T17:44:57;26.87;;;7.33;;
17528;SDS011;8882;53.192;8.184;2024-01-25T17:47:23;33.37;;;7.57;;
17528;SDS011;8882;53.192;8.184;2024-01-25T17:49:49;36.27;;;9.13;;
17528;SDS011;8882;53.192;8.184;2024-01-25T17:52:15;31.27;;;9.83;;
17528;SDS011;8882;53.192;8.184;2024-01-25T17:54:40;27.63;;;8.40;;
17528;SDS011;8882;53.192;8.184;2024-01-25T17:57:06;25.60;;;7.47;;
17528;SDS011;8882;53.192;8.184;2024-01-25T17:59:31;30.13;;;8.30;;
17528;SDS011;8882;53.192;8.184;2024-01-25T18:01:57;16.67;;;5.83;;
17528;SDS011;8882;53.192;8.184;2024-01-25T18:04:22;17.33;;;5.57;;
17528;SDS011;8882;53.192;8.184;2024-01-25T18:06:48;26.50;;;5.93;;
17528;SDS011;8882;53.192;8.184;2024-01-25T18:09:13;22.53;;;6.13;;
17528;SDS011;8882;53.192;8.184;2024-01-25T18:11:39;25.30;;;5.90;;
17528;SDS011;8882;53.192;8.184;2024-01-25T18:14:04;19.80;;;5.47;;
17528;SDS011;8882;53.192;8.184;2024-01-25T18:16:30;16.57;;;4.70;;
17528;SDS011;8882;53.192;8.184;2024-01-25T18:18:55;23.57;;;4.93;;
17528;SDS011;8882;53.192;8.184;2024-01-25T18:21:21;31.73;;;6.00;;
17528;SDS011;8882;53.192;8.184;2024-01-25T18:23:46;36.70;;;6.20;;
17528;SDS011;8882;53.192;8.184;2024-01-25T18:26:12;26.67;;;6.23;;
17528;SDS011;8882;53.192;8.184;2024-01-25T18:28:39;24.20;;;5.23;;
17528;SDS011;8882;53.192;8.184;2024-01-25T18:31:05;29.63;;;6.00;;
17528;SDS011;8882;53.192;8.184;2024-01-25T18:33:30;18.27;;;5.33;;
17528;SDS011;8882;53.192;8.184;2024-01-25T18:35:58;25.87;;;6.53;;
17528;SDS011;8882;53.192;8.184;2024-01-25T18:38:24;24.87;;;5.13;;
17528;SDS011;8882;53.192;8.184;2024-01-25T18:40:49;23.10;;;5.37;;
17528;SDS011;8882;53.192;8.184;2024-01-25T18:43:15;21.37;;;5.47;;
17528;SDS011;8882;53.192;8.184;2024-01-25T18:45:43;25.40;;;5.97;;
17528;SDS011;8882;53.192;8.184;2024-01-25T18:48:08;27.20;;;5.43;;
17528;SDS011;8882;53.192;8.184;2024-01-25T18:50:35;21.17;;;4.93;;
17528;SDS011;8882;53.192;8.184;2024-01-25T18:53:01;20.00;;;4.83;;
17528;SDS011;8882;53.192;8.184;2024-01-25T18:55:27;17.43;;;4.37;;
17528;SDS011;8882;53.192;8.184;2024-01-25T18:57:53;19.93;;;4.93;;
17528;SDS011;8882;53.192;8.184;2024-01-25T19:00:19;22.70;;;4.90;;
17528;SDS011;8882;53.192;8.184;2024-01-25T19:02:45;24.60;;;5.87;;
17528;SDS011;8882;53.192;8.184;2024-01-25T19:05:10;26.30;;;4.70;;
17528;SDS011;8882;53.192;8.184;2024-01-25T19:07:37;19.33;;;5.93;;
17528;SDS011;8882;53.192;8.184;2024-01-25T19:10:03;22.73;;;6.13;;
17528;SDS011;8882;53.192;8.184;2024-01-25T19:12:29;26.60;;;6.73;;
17528;SDS011;8882;53.192;8.184;2024-01-25T19:14:55;23.00;;;6.27;;
17528;SDS011;8882;53.192;8.184;2024-01-25T19:17:21;26.67;;;6.27;;
17528;SDS011;8882;53.192;8.184;2024-01-25T19:19:46;25.30;;;5.23;;
17528;SDS011;8882;53.192;8.184;2024-01-25T19:22:12;18.33;;;5.27;;
17528;SDS011;8882;53.192;8.184;2024-01-25T19:24:37;23.10;;;5.03;;
17528;SDS011;8882;53.192;8.184;2024-01-25T19:27:03;23.97;;;5.40;;
17528;SDS011;8882;53.192;8.184;2024-01-25T19:29:28;30.63;;;10.53;;
17528;SDS011;8882;53.192;8.184;2024-01-25T19:31:54;25.40;;;8.43;;
17528;SDS011;8882;53.192;8.184;2024-01-25T19:34:19;34.83;;;11.73;;
17528;SDS011;8882;53.192;8.184;2024-01-25T19:36:48;19.83;;;7.10;;
17528;SDS011;8882;53.192;8.184;2024-01-25T19:39:14;25.27;;;9.23;;
17528;SDS011;8882;53.192;8.184;2024-01-25T19:41:40;23.17;;;7.77;;
17528;SDS011;8882;53.192;8.184;2024-01-25T19:44:06;28.63;;;10.27;;
17528;SDS011;8882;53.192;8.184;2024-01-25T19:46:31;26.10;;;9.67;;
17528;SDS011;8882;53.192;8.184;2024-01-25T19:48:58;30.00;;;11.40;;
17528;SDS011;8882;53.192;8.184;2024-01-25T19:51:23;20.80;;;7.17;;
17528;SDS011;8882;53.192;8.184;2024-01-25T19:53:49;23.90;;;7.57;;
17528;SDS011;8882;53.192;8.184;2024-01-25T19:56:14;29.60;;;10.27;;
17528;SDS011;8882;53.192;8.184;2024-01-25T19:58:41;24.03;;;8.83;;
17528;SDS011;8882;53.192;8.184;2024-01-25T20:01:07;19.93;;;6.60;;
17528;SDS011;8882;53.192;8.184;2024-01-25T20:03:33;27.67;;;8.13;;
17528;SDS011;8882;53.192;8.184;2024-01-25T20:06:00;35.43;;;12.27;;
17528;SDS011;8882;53.192;8.184;2024-01-25T20:08:25;33.47;;;11.53;;
17528;SDS011;8882;53.192;8.184;2024-01-25T20:10:52;37.03;;;16.23;;
17528;SDS011;8882;53.192;8.184;2024-01-25T20:13:17;37.23;;;13.63;;
17528;SDS011;8882;53.192;8.184;2024-01-25T20:15:43;26.90;;;9.70;;
17528;SDS011;8882;53.192;8.184;2024-01-25T20:18:08;29.30;;;14.83;;
17528;SDS011;8882;53.192;8.184;2024-01-25T20:20:34;31.67;;;10.37;;
17528;SDS011;8882;53.192;8.184;2024-01-25T20:23:00;25.30;;;9.53;;
17528;SDS011;8882;53.192;8.184;2024-01-25T20:25:25;29.83;;;6.63;;
17528;SDS011;8882;53.192;8.184;2024-01-25T20:27:51;23.77;;;8.37;;
17528;SDS011;8882;53.192;8.184;2024-01-25T20:30:16;21.93;;;8.60;;
17528;SDS011;8882;53.192;8.184;2024-01-25T20:32:42;28.43;;;9.70;;
17528;SDS011;8882;53.192;8.184;2024-01-25T20:35:07;29.87;;;9.47;;
17528;SDS011;8882;53.192;8.184;2024-01-25T20:37:33;22.67;;;7.70;;
17528;SDS011;8882;53.192;8.184;2024-01-25T20:39:58;30.50;;;8.63;;
17528;SDS011;8882;53.192;8.184;2024-01-25T20:42:24;29.20;;;8.67;;
17528;SDS011;8882;53.192;8.184;2024-01-25T20:44:49;22.20;;;7.97;;
17528;SDS011;8882;53.192;8.184;2024-01-25T20:47:15;23.10;;;7.47;;
17528;SDS011;8882;53.192;8.184;2024-01-25T20:49:40;28.77;;;8.93;;
17528;SDS011;8882;53.192;8.184;2024-01-25T20:52:06;26.63;;;7.63;;
17528;SDS011;8882;53.192;8.184;2024-01-25T20:54:33;25.30;;;9.27;;
17528;SDS011;8882;53.192;8.184;2024-01-25T20:57:00;28.67;;;9.17;;
17528;SDS011;8882;53.192;8.184;2024-01-25T20:59:26;24.53;;;7.77;;
17528;SDS011;8882;53.192;8.184;2024-01-25T21:01:51;36.27;;;8.53;;
17528;SDS011;8882;53.192;8.184;2024-01-25T21:04:17;27.50;;;8.60;;
17528;SDS011;8882;53.192;8.184;2024-01-25T21:06:44;26.23;;;8.07;;
17528;SDS011;8882;53.192;8.184;2024-01-25T21:09:09;24.47;;;7.30;;
17528;SDS011;8882;53.192;8.184;2024-01-25T21:11:35;24.93;;;8.70;;
17528;SDS011;8882;53.192;8.184;2024-01-25T21:14:01;36.90;;;8.93;;
17528;SDS011;8882;53.192;8.184;2024-01-25T21:16:27;31.17;;;9.40;;
17528;SDS011;8882;53.192;8.184;2024-01-25T21:18:52;25.20;;;9.17;;
17528;SDS011;8882;53.192;8.184;2024-01-25T21:21:19;23.93;;;8.43;;
17528;SDS011;8882;53.192;8.184;2024-01-25T21:23:46;40.30;;;10.87;;
17528;SDS011;8882;53.192;8.184;2024-01-25T21:26:11;33.10;;;9.77;;
17528;SDS011;8882;53.192;8.184;2024-01-25T21:28:37;32.50;;;10.53;;
17528;SDS011;8882;53.192;8.184;2024-01-25T21:31:02;37.60;;;9.70;;
17528;SDS011;8882;53.192;8.184;2024-01-25T21:33:28;37.10;;;10.63;;
17528;SDS011;8882;53.192;8.184;2024-01-25T21:35:54;29.60;;;9.70;;
17528;SDS011;8882;53.192;8.184;2024-01-25T21:38:19;34.40;;;10.40;;
17528;SDS011;8882;53.192;8.184;2024-01-25T21:40:45;31.30;;;11.27;;
17528;SDS011;8882;53.192;8.184;2024-01-25T21:43:10;33.50;;;11.40;;
17528;SDS011;8882;53.192;8.184;2024-01-25T21:45:35;34.90;;;11.80;;
17528;SDS011;8882;53.192;8.184;2024-01-25T21:48:01;43.03;;;12.30;;
17528;SDS011;8882;53.192;8.184;2024-01-25T21:50:33;35.50;;;11.20;;
17528;SDS011;8882;53.192;8.184;2024-01-25T21:52:59;31.93;;;10.73;;
17528;SDS011;8882;53.192;8.184;2024-01-25T21:55:25;37.27;;;12.50;;
17528;SDS011;8882;53.192;8.184;2024-01-25T21:57:50;43.60;;;12.13;;
17528;SDS011;8882;53.192;8.184;2024-01-25T22:00:16;36.13;;;11.37;;
17528;SDS011;8882;53.192;8.184;2024-01-25T22:02:41;33.30;;;11.87;;
17528;SDS011;8882;53.192;8.184;2024-01-25T22:05:07;46.57;;;13.47;;
17528;SDS011;8882;53.192;8.184;2024-01-25T22:07:33;40.07;;;12.57;;
17528;SDS011;8882;53.192;8.184;2024-01-25T22:09:58;36.73;;;12.20;;
17528;SDS011;8882;53.192;8.184;2024-01-25T22:12:24;37.47;;;12.37;;
17528;SDS011;8882;53.192;8.184;2024-01-25T22:14:49;41.33;;;11.97;;
17528;SDS011;8882;53.192;8.184;2024-01-25T22:17:15;32.67;;;12.23;;
17528;SDS011;8882;53.192;8.184;2024-01-25T22:19:41;47.07;;;12.97;;
17528;SDS011;8882;53.192;8.184;2024-01-25T22:22:07;35.80;;;11.77;;
17528;SDS011;8882;53.192;8.184;2024-01-25T22:24:32;39.13;;;11.93;;
17528;SDS011;8882;53.192;8.184;2024-01-25T22:26:58;36.20;;;12.27;;
17528;SDS011;8882;53.192;8.184;2024-01-25T22:29:23;39.97;;;13.90;;
